Time;durP1;ratioP1;P1;durP2;ratioP2;P2;SDS_P1;SDS_P2;PMS_P1;PMS_P2;Temp;Humidity;BMP_temperature;BMP_pressure;BME280_temperature;BME280_humidity;BME280_pressure;Samples;Min_cycle;Max_cycle;Signal;HPM_P1;HPM_P2
2023/10/13 00:01:42;;;;;;;109.50;57.95;;;;;;;-148.88;100.00;-17125.47;5035979;28;20401;-87
2023/10/13 00:04:08;;;;;;;107.85;57.42;;;;;;;-148.88;100.00;-17125.47;5036105;28;20026;-87
2023/10/13 00:06:33;;;;;;;114.75;57.13;;;;;;;-148.88;100.00;-17125.47;5035543;28;20024;-86
2023/10/13 00:08:59;;;;;;;113.45;57.13;;;;;;;-148.88;100.00;-17125.47;5035552;28;20029;-87
2023/10/13 00:11:26;;;;;;;104.55;56.65;;;;;;;-148.88;100.00;-17125.47;5034706;28;20541;-86
2023/10/13 00:13:53;;;;;;;108.85;56.95;;;;;;;-148.88;100.00;-17125.47;5035383;28;20071;-87
2023/10/13 00:16:21;;;;;;;111.05;57.80;;;;;;;-148.88;100.00;-17125.47;5034194;28;20025;-87
2023/10/13 00:18:50;;;;;;;104.70;55.72;;;;;;;-148.88;100.00;-17125.47;5034253;28;20022;-87
2023/10/13 00:21:19;;;;;;;105.43;56.45;;;;;;;-148.88;100.00;-17125.47;5035640;28;20024;-87
2023/10/13 00:23:54;;;;;;;97.13;53.33;;;;;;;-148.88;100.00;-17125.47;5035309;28;20025;-87
2023/10/13 00:26:28;;;;;;;104.07;54.15;;;;;;;-148.88;100.00;-17125.47;5034090;28;20036;-87
2023/10/13 00:29:08;;;;;;;98.45;53.92;;;;;;;-148.88;100.00;-17125.47;5035715;28;20055;-87
2023/10/13 00:31:37;;;;;;;97.50;55.10;;;;;;;-148.88;100.00;-17125.47;5035458;28;20497;-87
2023/10/13 00:34:11;;;;;;;100.70;54.15;;;;;;;-148.88;100.00;-17125.47;5033818;28;20033;-86
2023/10/13 00:36:46;;;;;;;94.55;51.67;;;;;;;-148.88;100.00;-17125.47;5035241;28;20489;-86
2023/10/13 00:39:15;;;;;;;99.72;53.60;;;;;;;-148.88;100.00;-17125.47;5035832;28;20399;-87
2023/10/13 00:41:57;;;;;;;90.78;52.28;;;;;;;-148.88;100.00;-17125.47;5034765;28;20451;-87
2023/10/13 00:44:32;;;;;;;96.38;53.50;;;;;;;-148.88;100.00;-17125.47;5034657;28;20152;-86
2023/10/13 00:46:58;;;;;;;92.60;52.33;;;;;;;-148.88;100.00;-17125.47;5033498;28;20047;-87
2023/10/13 00:49:23;;;;;;;92.18;53.63;;;;;;;-148.88;100.00;-17125.47;5035262;28;20394;-87
2023/10/13 00:51:50;;;;;;;95.38;53.10;;;;;;;-148.88;100.00;-17125.47;5034543;28;20075;-87
2023/10/13 00:54:18;;;;;;;90.28;52.65;;;;;;;-148.88;100.00;-17125.47;5033202;28;20108;-86
2023/10/13 00:56:57;;;;;;;87.43;51.05;;;;;;;-148.88;100.00;-17125.47;5033118;28;20405;-87
2023/10/13 00:59:25;;;;;;;95.32;51.85;;;;;;;-148.88;100.00;-17125.47;5034693;28;20025;-87
2023/10/13 01:01:55;;;;;;;99.10;52.75;;;;;;;-148.88;100.00;-17125.47;5034243;28;20021;-89
2023/10/13 01:04:27;;;;;;;91.03;52.60;;;;;;;-148.88;100.00;-17125.47;5033547;28;20035;-88
2023/10/13 01:06:53;;;;;;;91.97;51.60;;;;;;;-148.88;100.00;-17125.47;5034611;28;20027;-87
2023/10/13 01:09:18;;;;;;;90.00;53.10;;;;;;;-148.88;100.00;-17125.47;5034408;28;20029;-88
2023/10/13 01:11:52;;;;;;;90.00;51.72;;;;;;;-148.88;100.00;-17125.47;5033349;28;20025;-86
2023/10/13 01:14:18;;;;;;;;;;;;;;;-148.88;100.00;-17125.47;5035389;28;20028;-87
2023/10/13 01:16:45;;;;;;;80.68;49.75;;;;;;;-148.88;100.00;-17125.47;5034551;28;20412;-86
2023/10/13 01:19:19;;;;;;;78.03;47.38;;;;;;;-148.88;100.00;-17125.47;5034211;28;20036;-88
2023/10/13 01:21:45;;;;;;;74.80;47.33;;;;;;;-148.88;100.00;-17125.47;5034299;28;20063;-87
2023/10/13 01:24:13;;;;;;;76.70;47.40;;;;;;;-148.88;100.00;-17125.47;5034197;28;20040;-86
2023/10/13 01:26:40;;;;;;;81.18;47.53;;;;;;;-148.88;100.00;-17125.47;5034460;28;20032;-87
2023/10/13 01:29:14;;;;;;;69.63;46.17;;;;;;;-148.88;100.00;-17125.47;5032671;28;20099;-87
2023/10/13 01:31:47;;;;;;;74.13;46.00;;;;;;;-148.88;100.00;-17125.47;5034120;28;20063;-87
2023/10/13 01:34:23;;;;;;;69.85;45.20;;;;;;;-148.88;100.00;-17125.47;5034174;28;20025;-87
2023/10/13 01:36:53;;;;;;;65.57;43.45;;;;;;;-148.88;100.00;-17125.47;5034265;28;20060;-87
2023/10/13 01:39:26;;;;;;;65.25;43.50;;;;;;;-148.88;100.00;-17125.47;5033063;28;20049;-87
2023/10/13 01:41:55;;;;;;;64.53;42.05;;;;;;;-148.88;100.00;-17125.47;5033986;28;20036;-87
2023/10/13 01:44:27;;;;;;;71.00;43.22;;;;;;;-148.88;100.00;-17125.47;5033900;28;20096;-88
2023/10/13 01:46:53;;;;;;;66.75;43.63;;;;;;;-148.88;100.00;-17125.47;5033768;28;20036;-87
2023/10/13 01:49:19;;;;;;;61.63;42.35;;;;;;;-148.88;100.00;-17125.47;5032877;28;20029;-87
2023/10/13 01:51:47;;;;;;;61.97;42.70;;;;;;;-148.88;100.00;-17125.47;5032746;28;20028;-88
2023/10/13 01:54:13;;;;;;;59.97;40.67;;;;;;;-148.88;100.00;-17125.47;5033879;28;20017;-88
2023/10/13 01:56:45;;;;;;;56.67;39.20;;;;;;;-148.88;100.00;-17125.47;5034181;28;20478;-87
2023/10/13 01:59:11;;;;;;;54.08;38.35;;;;;;;-148.88;100.00;-17125.47;5033796;28;20029;-88
2023/10/13 02:01:38;;;;;;;56.33;38.60;;;;;;;-148.88;100.00;-17125.47;5033833;28;20067;-87
2023/10/13 02:04:04;;;;;;;53.50;38.03;;;;;;;-148.88;100.00;-17125.47;5033580;28;20402;-88
2023/10/13 02:06:32;;;;;;;55.45;37.33;;;;;;;-148.88;100.00;-17125.47;5033745;28;20424;-88
2023/10/13 02:09:05;;;;;;;54.45;36.17;;;;;;;-148.88;100.00;-17125.47;5032340;28;20401;-86
2023/10/13 02:11:30;;;;;;;56.97;35.93;;;;;;;-148.88;100.00;-17125.47;5033365;28;20025;-88
2023/10/13 02:13:57;;;;;;;50.65;34.72;;;;;;;-148.88;100.00;-17125.47;5033166;28;20135;-88
2023/10/13 02:16:25;;;;;;;47.83;33.58;;;;;;;-148.88;100.00;-17125.47;5033278;28;20029;-89
2023/10/13 02:18:51;;;;;;;43.78;33.13;;;;;;;-148.88;100.00;-17125.47;5032179;28;20108;-87
2023/10/13 02:21:17;;;;;;;47.80;33.03;;;;;;;-148.88;100.00;-17125.47;5033213;28;20029;-87
2023/10/13 02:23:46;;;;;;;43.90;32.30;;;;;;;-148.88;100.00;-17125.47;5031970;28;20017;-88
2023/10/13 02:26:15;;;;;;;44.25;30.73;;;;;;;-148.88;100.00;-17125.47;5033494;28;20420;-88
2023/10/13 02:28:41;;;;;;;40.75;31.55;;;;;;;-148.88;100.00;-17125.47;5032597;28;20079;-88
2023/10/13 02:31:07;;;;;;;43.67;31.00;;;;;;;-148.88;100.00;-17125.47;5032052;28;20017;-88
2023/10/13 02:33:34;;;;;;;44.33;30.70;;;;;;;-148.88;100.00;-17125.47;5031656;28;20513;-88
2023/10/13 02:36:05;;;;;;;44.13;30.65;;;;;;;-148.88;100.00;-17125.47;5032828;28;20036;-89
2023/10/13 02:41:05;;;;;;;44.85;31.58;;;;;;;-148.88;100.00;-17125.47;5032850;28;20021;-89
2023/10/13 02:43:33;;;;;;;45.67;32.67;;;;;;;-148.88;100.00;-17125.47;5033310;28;20029;-88
2023/10/13 02:45:59;;;;;;;43.67;32.58;;;;;;;-148.88;100.00;-17125.47;5032752;28;20029;-88
2023/10/13 02:48:41;;;;;;;50.15;34.03;;;;;;;-148.88;100.00;-17125.47;5033014;28;20029;-87
2023/10/13 02:51:17;;;;;;;45.75;32.40;;;;;;;-148.88;100.00;-17125.47;5033347;28;20072;-88
2023/10/13 02:53:49;;;;;;;47.45;32.80;;;;;;;-148.88;100.00;-17125.47;5032947;28;20092;-88
2023/10/13 02:56:20;;;;;;;45.38;32.65;;;;;;;-148.88;100.00;-17125.47;5032328;28;20021;-88
2023/10/13 02:58:56;;;;;;;43.03;30.60;;;;;;;-148.88;100.00;-17125.47;5031719;28;20105;-86
2023/10/13 03:01:33;;;;;;;43.80;29.85;;;;;;;-148.88;100.00;-17125.47;5033287;28;20112;-87
2023/10/13 03:03:59;;;;;;;38.75;27.85;;;;;;;-148.88;100.00;-17125.47;5031880;28;20395;-88
2023/10/13 03:06:32;;;;;;;38.72;29.15;;;;;;;-148.88;100.00;-17125.47;5032132;28;20390;-89
2023/10/13 03:09:18;;;;;;;36.35;28.10;;;;;;;-148.88;100.00;-17125.47;5032718;28;20029;-90
2023/10/13 03:11:50;;;;;;;39.22;27.02;;;;;;;-148.88;100.00;-17125.47;5031586;28;20018;-89
2023/10/13 03:14:33;;;;;;;38.08;27.15;;;;;;;-148.88;100.00;-17125.47;5032905;28;20072;-88
2023/10/13 03:17:06;;;;;;;41.03;28.80;;;;;;;-148.88;100.00;-17125.47;5031752;28;20064;-89
2023/10/13 03:19:32;;;;;;;37.97;27.65;;;;;;;-148.88;100.00;-17125.47;5032523;28;20034;-88
2023/10/13 03:22:11;;;;;;;36.75;27.95;;;;;;;-148.88;100.00;-17125.47;5032560;28;20505;-88
2023/10/13 03:24:45;;;;;;;37.95;26.88;;;;;;;-148.88;100.00;-17125.47;5032828;28;20079;-87
2023/10/13 03:27:12;;;;;;;36.92;26.88;;;;;;;-148.88;100.00;-17125.47;5035236;28;20100;-88
2023/10/13 03:29:42;;;;;;;37.30;27.45;;;;;;;-148.88;100.00;-17125.47;5035051;28;20487;-87
2023/10/13 03:32:11;;;;;;;38.50;26.92;;;;;;;-148.88;100.00;-17125.47;5036360;28;20025;-89
2023/10/13 03:34:53;;;;;;;36.03;25.90;;;;;;;-148.88;100.00;-17125.47;5036362;28;20057;-88
2023/10/13 03:37:38;;;;;;;37.55;26.42;;;;;;;-148.88;100.00;-17125.47;5035585;28;20425;-87
2023/10/13 03:43:31;;;;;;;32.53;25.55;;;;;;;-148.88;100.00;-17125.47;5036302;28;20030;-87
2023/10/13 03:45:43;;;;;;;33.22;24.60;;;;;;;-148.88;100.00;-17125.47;5025876;28;20072;-89
2023/10/13 03:51:33;;;;;;;37.85;28.75;;;;;;;-148.88;100.00;-17125.47;5036734;28;20036;-88
2023/10/13 03:53:55;;;;;;;38.67;27.35;;;;;;;-148.88;100.00;-17125.47;5030545;28;20030;-88
2023/10/13 03:56:26;;;;;;;37.90;28.40;;;;;;;-148.88;100.00;-17125.47;5037142;28;20058;-88
2023/10/13 03:59:04;;;;;;;38.33;28.02;;;;;;;-148.88;100.00;-17125.47;5035923;28;20029;-88
2023/10/13 04:01:40;;;;;;;37.92;27.40;;;;;;;-148.88;100.00;-17125.47;5035362;28;20025;-88
2023/10/13 04:04:15;;;;;;;34.03;25.98;;;;;;;-148.88;100.00;-17125.47;5036267;28;20049;-89
2023/10/13 04:07:12;;;;;;;39.78;27.42;;;;;;;-148.88;100.00;-17125.47;5034899;28;20076;-88
2023/10/13 04:17:40;;;;;;;37.25;26.65;;;;;;;-148.88;100.00;-17125.47;5036784;28;20116;-88
2023/10/13 04:36:20;;;;;;;39.70;25.02;;;;;;;-148.88;100.00;-17125.47;5035715;28;20033;-87
2023/10/13 04:47:17;;;;;;;36.70;24.70;;;;;;;-148.88;100.00;-17125.47;5035483;28;20022;-88
2023/10/13 04:57:34;;;;;;;37.72;26.58;;;;;;;-148.88;100.00;-17125.47;5035385;28;20032;-90
2023/10/13 05:05:21;;;;;;;32.55;24.88;;;;;;;-148.88;100.00;-17125.47;5035091;28;20108;-89
2023/10/13 06:30:33;;;;;;;27.77;17.52;;;;;;;-148.88;100.00;-17125.47;5015683;28;20048;-86
2023/10/13 06:32:58;;;;;;;27.27;18.60;;;;;;;-148.88;100.00;-17125.47;5032080;28;20028;-87
2023/10/13 06:35:23;;;;;;;24.23;17.67;;;;;;;-148.88;100.00;-17125.47;5033093;28;20017;-86
2023/10/13 06:37:50;;;;;;;27.13;17.90;;;;;;;-148.88;100.00;-17125.47;5033345;28;20021;-86
2023/10/13 06:43:12;;;;;;;24.33;17.52;;;;;;;-148.88;100.00;-17125.47;5033091;28;20063;-87
2023/10/13 06:45:39;;;;;;;25.15;17.80;;;;;;;-148.88;100.00;-17125.47;5033654;28;20032;-86
2023/10/13 06:48:11;;;;;;;26.90;17.15;;;;;;;-148.88;100.00;-17125.47;5031349;28;20024;-86
2023/10/13 06:50:41;;;;;;;21.08;15.73;;;;;;;-148.88;100.00;-17125.47;5032009;28;20037;-88
2023/10/13 06:53:07;;;;;;;21.27;15.82;;;;;;;-148.88;100.00;-17125.47;5031678;28;20068;-87
2023/10/13 06:55:40;;;;;;;23.55;15.98;;;;;;;-148.88;100.00;-17125.47;5032935;28;20033;-86
2023/10/13 06:58:06;;;;;;;25.77;16.48;;;;;;;-148.88;100.00;-17125.47;5033358;28;20022;-86
2023/10/13 07:00:38;;;;;;;20.75;14.27;;;;;;;-148.88;100.00;-17125.47;5033544;28;20060;-86
2023/10/13 07:03:33;;;;;;;23.70;16.33;;;;;;;-148.88;100.00;-17125.47;5037461;28;20528;-87
2023/10/13 07:05:51;;;;;;;21.23;14.90;;;;;;;-148.88;100.00;-17125.47;5038342;28;20041;-88
2023/10/13 07:08:20;;;;;;;20.88;14.93;;;;;;;-148.88;100.00;-17125.47;5039435;28;20148;-87
2023/10/13 07:11:13;;;;;;;19.83;13.95;;;;;;;-148.88;100.00;-17125.47;5038026;28;20032;-84
2023/10/13 07:13:39;;;;;;;22.35;14.95;;;;;;;-148.88;100.00;-17125.47;5038107;28;20025;-86
2023/10/13 07:16:12;;;;;;;18.98;13.82;;;;;;;-148.88;100.00;-17125.47;5038007;28;20029;-85
2023/10/13 07:18:49;;;;;;;18.92;13.68;;;;;;;-148.88;100.00;-17125.47;5039240;28;20025;-85
2023/10/13 07:21:24;;;;;;;20.25;15.02;;;;;;;-148.88;100.00;-17125.47;5039212;28;20026;-86
2023/10/13 07:24:01;;;;;;;16.48;12.45;;;;;;;-148.88;100.00;-17125.47;5038178;28;20017;-88
2023/10/13 07:26:29;;;;;;;16.45;12.32;;;;;;;-148.88;100.00;-17125.47;5038586;28;20075;-85
2023/10/13 07:28:55;;;;;;;15.57;12.00;;;;;;;-148.88;100.00;-17125.47;5037758;28;20065;-86
2023/10/13 07:31:29;;;;;;;17.95;11.85;;;;;;;-148.88;100.00;-17125.47;5037834;28;20075;-86
2023/10/13 07:34:04;;;;;;;18.42;11.77;;;;;;;-148.88;100.00;-17125.47;5038137;28;20058;-87
2023/10/13 07:36:33;;;;;;;15.63;11.48;;;;;;;-148.88;100.00;-17125.47;5039112;28;20021;-87
2023/10/13 07:41:42;;;;;;;14.82;10.27;;;;;;;-148.88;100.00;-17125.47;5039415;28;20504;-85
2023/10/13 07:44:08;;;;;;;14.13;10.35;;;;;;;-148.88;100.00;-17125.47;5039253;28;20037;-87
2023/10/13 07:46:35;;;;;;;11.85;9.43;;;;;;;-148.88;100.00;-17125.47;5038920;28;20021;-86
2023/10/13 07:49:09;;;;;;;14.23;9.35;;;;;;;-148.88;100.00;-17125.47;5037936;28;20025;-86
2023/10/13 07:51:44;;;;;;;15.07;9.63;;;;;;;-148.88;100.00;-17125.47;5037864;28;20493;-87
2023/10/13 07:54:13;;;;;;;13.48;9.52;;;;;;;-148.88;100.00;-17125.47;5038998;28;20053;-88
2023/10/13 07:56:39;;;;;;;12.57;9.25;;;;;;;-148.88;100.00;-17125.47;5037601;28;20048;-89
2023/10/13 07:59:09;;;;;;;16.30;9.65;;;;;;;-148.88;100.00;-17125.47;5037416;28;20029;-89
2023/10/13 08:01:42;;;;;;;13.05;9.60;;;;;;;-148.88;100.00;-17125.47;5039184;28;20444;-86
2023/10/13 08:06:36;;;;;;;16.35;9.32;;;;;;;-148.88;100.00;-17125.47;5039065;28;20025;-89
2023/10/13 08:09:31;;;;;;;14.05;8.98;;;;;;;-148.88;100.00;-17125.47;5037898;28;20452;-89
2023/10/13 08:11:57;;;;;;;12.02;8.52;;;;;;;-148.88;100.00;-17125.47;5038991;28;20474;-90
2023/10/13 08:14:29;;;;;;;11.88;8.90;;;;;;;-148.88;100.00;-17125.47;5034713;28;20028;-89
2023/10/13 08:16:59;;;;;;;10.88;7.80;;;;;;;-148.88;100.00;-17125.47;5035086;28;20402;-89
2023/10/13 08:20:11;;;;;;;12.75;7.95;;;;;;;-148.88;100.00;-17125.47;5034783;28;20120;-85
2023/10/13 08:37:28;;;;;;;12.32;8.30;;;;;;;-148.88;100.00;-17125.47;5035287;28;20474;-88
2023/10/13 08:48:31;;;;;;;11.90;6.82;;;;;;;-148.88;100.00;-17125.47;5027089;28;20389;-88
2023/10/13 08:51:03;;;;;;;10.57;7.68;;;;;;;-148.88;100.00;-17125.47;5033987;28;20036;-87
2023/10/13 08:53:52;;;;;;;9.93;6.97;;;;;;;-148.88;100.00;-17125.47;5033616;28;20021;-88
2023/10/13 08:56:18;;;;;;;10.68;7.30;;;;;;;-148.88;100.00;-17125.47;5035431;28;20029;-87
2023/10/13 09:02:59;;;;;;;8.90;5.95;;;;;;;-148.88;100.00;-17125.47;5034965;28;20021;-86
2023/10/13 09:04:47;;;;;;;10.00;7.00;;;;;;;-148.88;100.00;-17125.47;5003655;28;20034;-87
2023/10/13 09:07:25;;;;;;;13.95;6.72;;;;;;;-148.88;100.00;-17125.47;5034824;28;20466;-86
2023/10/13 09:13:11;;;;;;;12.48;6.00;;;;;;;-148.88;100.00;-17125.47;5034678;28;20473;-87
2023/10/13 09:16:01;;;;;;;12.00;6.35;;;;;;;-148.88;100.00;-17125.47;4937565;29;20039;-85
2023/10/13 09:21:54;;;;;;;12.63;7.40;;;;;;;-148.88;100.00;-17125.47;4954216;29;20034;-88
2023/10/13 09:27:15;;;;;;;11.73;6.65;;;;;;;-148.88;100.00;-17125.47;4951055;29;20031;-87
2023/10/13 09:29:41;;;;;;;11.80;6.55;;;;;;;-148.88;100.00;-17125.47;4954203;29;20118;-88
2023/10/13 09:32:11;;;;;;;12.20;6.70;;;;;;;-148.88;100.00;-17125.47;5016139;28;20375;-85
2023/10/13 09:34:40;;;;;;;12.10;5.90;;;;;;;-148.88;100.00;-17125.47;5034445;28;20032;-87
2023/10/13 09:37:09;;;;;;;11.05;6.35;;;;;;;-148.88;100.00;-17125.47;5034605;28;20017;-85
2023/10/13 09:39:41;;;;;;;13.88;6.18;;;;;;;-148.88;100.00;-17125.47;5034288;28;20028;-87
2023/10/13 09:42:10;;;;;;;11.63;6.10;;;;;;;-148.88;100.00;-17125.47;5033813;28;20444;-86
2023/10/13 09:44:49;;;;;;;12.80;5.75;;;;;;;-148.88;100.00;-17125.47;5033129;28;20025;-86
2023/10/13 09:47:29;;;;;;;13.15;6.68;;;;;;;-148.88;100.00;-17125.47;5033675;28;20090;-85
2023/10/13 09:50:04;;;;;;;7.90;5.45;;;;;;;-148.88;100.00;-17125.47;5033542;28;20477;-87
2023/10/13 09:52:33;;;;;;;10.13;5.20;;;;;;;-148.88;100.00;-17125.47;5032939;28;20033;-86
2023/10/13 09:55:10;;;;;;;15.70;6.30;;;;;;;-148.88;100.00;-17125.47;5033816;28;20053;-86
2023/10/13 09:57:57;;;;;;;13.10;6.00;;;;;;;-148.88;100.00;-17125.47;5032442;28;20022;-86
2023/10/13 10:00:56;;;;;;;;;;;;;;;;;;;;;
2023/10/13 10:06:03;;;;;;;;;;;;;;;-148.88;100.00;-17125.47;5034150;28;20047;-77
2023/10/13 10:08:34;;;;;;;12.93;5.88;;;;;;;-148.88;100.00;-17125.47;5031661;28;19916;-77
2023/10/13 10:11:19;;;;;;;11.02;5.28;;;;;;;-148.88;100.00;-17125.47;5033568;28;20092;-77
2023/10/13 10:14:08;;;;;;;13.75;5.18;;;;;;;-148.88;100.00;-17125.47;5033076;28;20474;-77
2023/10/13 10:17:00;;;;;;;10.43;4.97;;;;;;;-148.88;100.00;-17125.47;5033173;28;20029;-77
2023/10/13 10:19:30;;;;;;;10.77;5.22;;;;;;;-148.88;100.00;-17125.47;5022207;28;20033;-77
2023/10/13 10:22:05;;;;;;;10.00;5.53;;;;;;;-148.88;100.00;-17125.47;5032834;28;20044;-77
2023/10/13 10:24:30;;;;;;;12.02;5.15;;;;;;;-148.88;100.00;-17125.47;5031328;28;20021;-77
2023/10/13 10:26:56;;;;;;;9.77;5.53;;;;;;;-148.88;100.00;-17125.47;5032802;28;20199;-77
2023/10/13 10:29:22;;;;;;;11.93;5.65;;;;;;;-148.88;100.00;-17125.47;5032771;28;20033;-77
2023/10/13 10:31:48;;;;;;;11.73;5.75;;;;;;;-148.88;100.00;-17125.47;5032693;28;20025;-77
2023/10/13 10:34:21;;;;;;;14.90;6.38;;;;;;;-148.88;100.00;-17125.47;5032891;28;20028;-77
2023/10/13 10:36:58;;;;;;;17.98;6.68;;;;;;;-148.88;100.00;-17125.47;5032019;28;20033;-77
2023/10/13 10:39:33;;;;;;;14.45;5.97;;;;;;;-148.88;100.00;-17125.47;5032457;28;20091;-77
2023/10/13 10:42:15;;;;;;;13.18;6.30;;;;;;;-148.88;100.00;-17125.47;5102726;23;20041;-77
2023/10/13 10:44:43;;;;;;;14.63;5.93;;;;;;;-148.88;100.00;-17125.47;5035244;28;20017;-77
2023/10/13 10:47:19;;;;;;;11.45;4.90;;;;;;;-148.88;100.00;-17125.47;5034612;28;20021;-77
2023/10/13 10:49:45;;;;;;;10.38;4.63;;;;;;;-148.88;100.00;-17125.47;5033679;28;20100;-77
2023/10/13 10:52:18;;;;;;;14.25;5.40;;;;;;;-148.88;100.00;-17125.47;5032379;28;20113;-77
2023/10/13 10:54:44;;;;;;;14.70;5.85;;;;;;;-148.88;100.00;-17125.47;5031803;28;20017;-77
2023/10/13 10:57:17;;;;;;;11.55;5.00;;;;;;;-148.88;100.00;-17125.47;5032769;28;20021;-77
2023/10/13 10:59:42;;;;;;;13.88;4.90;;;;;;;-148.88;100.00;-17125.47;5032191;28;20482;-77
2023/10/13 11:02:08;;;;;;;10.93;5.60;;;;;;;-148.88;100.00;-17125.47;5033902;28;20037;-77
2023/10/13 11:04:40;;;;;;;14.32;5.03;;;;;;;-148.88;100.00;-17125.47;5031889;28;20026;-77
2023/10/13 11:07:06;;;;;;;12.52;5.00;;;;;;;-148.88;100.00;-17125.47;5032936;28;20021;-77
2023/10/13 11:09:45;;;;;;;12.48;5.15;;;;;;;-148.88;100.00;-17125.47;5032588;28;20025;-77
2023/10/13 11:12:27;;;;;;;14.30;5.85;;;;;;;-148.88;100.00;-17125.47;5033281;28;20018;-77
2023/10/13 11:15:15;;;;;;;11.90;5.40;;;;;;;-148.88;100.00;-17125.47;5031339;28;20121;-77
2023/10/13 11:17:48;;;;;;;15.02;5.60;;;;;;;-148.88;100.00;-17125.47;5031836;28;20423;-77
2023/10/13 11:20:17;;;;;;;15.80;5.47;;;;;;;-148.88;98.89;-17125.47;5033001;28;20073;-77
2023/10/13 11:22:47;;;;;;;10.75;4.72;;;;;;;-148.88;98.22;-17125.47;5033782;28;20113;-77
2023/10/13 11:25:29;;;;;;;9.20;4.95;;;;;;;-148.88;95.84;-17125.47;5033534;28;20025;-77
2023/10/13 11:27:56;;;;;;;12.65;5.45;;;;;;;-148.88;96.97;-17125.47;5031966;28;20436;-76
2023/10/13 11:30:25;;;;;;;13.75;4.50;;;;;;;-148.88;95.52;-17125.47;5033103;28;20108;-77
2023/10/13 11:32:56;;;;;;;17.88;4.70;;;;;;;-148.88;93.94;-17125.47;5033387;28;20025;-77
2023/10/13 11:35:25;;;;;;;11.55;5.22;;;;;;;-148.88;94.64;-17125.47;5033317;28;20033;-76
2023/10/13 11:38:03;;;;;;;11.52;4.57;;;;;;;-148.88;96.55;-17125.47;5033147;28;20084;-76
2023/10/13 11:41:06;;;;;;;17.30;5.22;;;;;;;-148.88;94.81;-17125.47;5033108;28;20026;-77
2023/10/13 11:43:37;;;;;;;10.68;4.72;;;;;;;-148.88;93.38;-17125.47;5031796;28;20030;-77
2023/10/13 11:48:39;;;;;;;10.45;4.50;;;;;;;-148.88;91.28;-17125.47;5035682;28;20030;-77
2023/10/13 11:51:08;;;;;;;14.00;4.72;;;;;;;-148.88;90.80;-17125.47;5036042;28;20025;-77
2023/10/13 11:53:34;;;;;;;16.90;5.40;;;;;;;-148.88;93.24;-17125.47;5035757;28;20080;-77
2023/10/13 11:56:00;;;;;;;15.25;5.57;;;;;;;-148.88;91.44;-17125.47;5035621;28;20490;-77
2023/10/13 11:58:28;;;;;;;14.90;5.30;;;;;;;-148.88;93.03;-17125.47;5036590;28;20025;-76
2023/10/13 12:01:07;;;;;;;12.93;5.15;;;;;;;-148.88;93.06;-17125.47;5036650;28;20057;-77
2023/10/13 12:06:22;;;;;;;12.40;5.15;;;;;;;-148.88;92.19;-17125.47;5036052;28;20059;-77
2023/10/13 12:08:51;;;;;;;11.13;5.00;;;;;;;-148.88;92.25;-17125.47;5035112;28;20087;-77
2023/10/13 12:11:32;;;;;;;17.27;5.47;;;;;;;-148.88;88.70;-17125.47;5037073;28;20131;-76
2023/10/13 12:13:58;;;;;;;17.95;5.40;;;;;;;-148.88;85.81;-17125.47;5036850;28;20014;-77
2023/10/13 12:16:34;;;;;;;19.42;4.97;;;;;;;-148.88;86.24;-17125.47;5036373;28;20402;-77
2023/10/13 12:19:01;;;;;;;13.27;4.63;;;;;;;-148.88;87.42;-17125.47;5035666;28;20037;-77
2023/10/13 12:21:27;;;;;;;14.45;5.78;;;;;;;-148.88;86.82;-17125.47;5034091;28;20025;-77
2023/10/13 12:23:53;;;;;;;13.80;5.78;;;;;;;-148.88;83.79;-17125.47;5035305;28;20394;-77
2023/10/13 12:26:19;;;;;;;13.68;4.95;;;;;;;-148.88;84.29;-17125.47;5034397;28;20427;-77
2023/10/13 12:28:53;;;;;;;17.00;5.00;;;;;;;-148.88;84.98;-17125.47;5035514;28;20075;-77
2023/10/13 12:31:26;;;;;;;16.23;5.68;;;;;;;-148.88;85.50;-17125.47;5036095;28;20021;-76
2023/10/13 12:33:52;;;;;;;16.50;5.63;;;;;;;-148.88;87.17;-17125.47;5036793;28;20073;-76
2023/10/13 12:36:30;;;;;;;13.60;5.50;;;;;;;-148.88;89.41;-17125.47;5036691;28;20034;-77
2023/10/13 12:49:58;;;;;;;17.83;5.53;;;;;;;-148.88;87.40;-17125.47;5035652;28;20470;-77
2023/10/13 12:52:26;;;;;;;15.43;5.75;;;;;;;-148.88;85.72;-17125.47;5036458;28;20444;-76
2023/10/13 12:57:23;;;;;;;14.38;5.65;;;;;;;-148.88;87.77;-17125.47;5035024;28;20030;-77
2023/10/13 12:59:49;;;;;;;12.60;5.82;;;;;;;-148.88;88.67;-17125.47;5033825;28;20070;-77
2023/10/13 13:02:15;;;;;;;17.20;5.63;;;;;;;-148.88;86.40;-17125.47;5034529;28;20033;-77
2023/10/13 13:04:44;;;;;;;11.55;5.28;;;;;;;-148.88;85.79;-17125.47;5034966;28;20053;-77
2023/10/13 13:07:13;;;;;;;12.63;5.60;;;;;;;-148.88;87.40;-17125.47;5035192;28;20394;-76
2023/10/13 13:09:42;;;;;;;12.30;5.03;;;;;;;-148.88;84.74;-17125.47;5035826;28;20026;-77
2023/10/13 13:12:12;;;;;;;14.70;5.50;;;;;;;-148.88;86.03;-17125.47;5034723;28;20025;-76
2023/10/13 13:14:40;;;;;;;13.82;5.75;;;;;;;-148.88;88.43;-17125.47;5035391;28;20028;-77
2023/10/13 13:17:05;;;;;;;13.32;5.32;;;;;;;-148.88;85.93;-17125.47;5035426;28;20021;-77
2023/10/13 13:19:41;;;;;;;14.55;5.20;;;;;;;-148.88;87.78;-17125.47;5035537;28;20030;-77
2023/10/13 13:22:11;;;;;;;15.93;5.32;;;;;;;-148.88;87.71;-17125.47;5036055;28;20036;-77
2023/10/13 13:24:43;;;;;;;17.20;5.03;;;;;;;-148.88;86.73;-17125.47;5034079;28;20025;-76
2023/10/13 13:27:13;;;;;;;14.48;5.63;;;;;;;-148.88;84.48;-17125.47;5034018;28;20027;-76
2023/10/13 13:29:39;;;;;;;15.55;5.07;;;;;;;-148.88;81.37;-17125.47;5035515;28;20044;-77
2023/10/13 13:32:05;;;;;;;14.65;5.82;;;;;;;-148.88;79.79;-17125.47;5034039;28;20018;-77
2023/10/13 13:34:30;;;;;;;12.73;5.15;;;;;;;-148.88;78.58;-17125.47;5033930;28;20096;-77
2023/10/13 13:37:00;;;;;;;13.15;5.63;;;;;;;-148.88;78.05;-17125.47;5034034;28;20083;-77
2023/10/13 13:39:31;;;;;;;14.85;4.93;;;;;;;-148.88;78.17;-17125.47;5034161;28;20099;-77
2023/10/13 13:41:59;;;;;;;11.70;5.18;;;;;;;-148.88;76.49;-17125.47;5033157;28;20040;-77
2023/10/13 13:44:35;;;;;;;12.77;5.15;;;;;;;-148.88;77.95;-17125.47;5034856;28;20022;-77
2023/10/13 13:47:05;;;;;;;15.60;5.65;;;;;;;-148.88;77.19;-17125.47;5034981;28;20021;-76
2023/10/13 13:49:39;;;;;;;13.70;5.30;;;;;;;-148.88;77.76;-17125.47;5032787;28;20021;-76
2023/10/13 13:52:05;;;;;;;11.30;5.10;;;;;;;-148.88;76.67;-17125.47;5033546;28;20154;-76
2023/10/13 13:54:30;;;;;;;11.57;5.30;;;;;;;-148.88;75.59;-17125.47;5033772;28;20422;-76
2023/10/13 13:56:57;;;;;;;14.55;5.25;;;;;;;-148.88;75.69;-17125.47;5033457;28;20032;-76
2023/10/13 13:59:22;;;;;;;15.63;5.47;;;;;;;-148.88;76.83;-17125.47;5032061;28;20025;-76
2023/10/13 14:01:48;;;;;;;17.27;5.78;;;;;;;-148.88;76.54;-17125.47;5032189;28;20072;-76
2023/10/13 14:04:17;;;;;;;12.27;6.15;;;;;;;-148.88;78.45;-17125.47;5033240;28;20064;-76
2023/10/13 14:06:46;;;;;;;10.45;5.30;;;;;;;-148.88;77.93;-17125.47;5032141;28;20483;-76
2023/10/13 14:09:15;;;;;;;17.73;5.55;;;;;;;-148.88;79.01;-17125.47;5031918;28;20104;-77
2023/10/13 14:16:51;;;;;;;15.18;5.93;;;;;;;-148.88;76.71;-17125.47;5033826;28;20450;-77
2023/10/13 14:19:26;;;;;;;16.60;5.97;;;;;;;-148.88;77.63;-17125.47;5033649;28;20033;-77
2023/10/13 14:21:53;;;;;;;15.32;6.40;;;;;;;-148.88;76.43;-17125.47;5034459;28;20540;-76
2023/10/13 14:24:27;;;;;;;16.38;6.35;;;;;;;-148.88;76.47;-17125.47;5032510;28;20029;-76
2023/10/13 14:26:53;;;;;;;12.15;5.25;;;;;;;-148.88;75.55;-17125.47;5032952;28;20021;-77
2023/10/13 14:29:19;;;;;;;14.65;5.43;;;;;;;-148.88;75.28;-17125.47;5034542;28;20071;-77
2023/10/13 14:31:48;;;;;;;15.48;5.97;;;;;;;-148.88;78.39;-17125.47;5033202;28;20033;-76
2023/10/13 14:34:14;;;;;;;13.80;5.70;;;;;;;-148.88;77.21;-17125.47;5033447;28;20021;-77
2023/10/13 14:36:40;;;;;;;19.95;5.78;;;;;;;-148.88;77.49;-17125.47;5033443;28;20033;-77
2023/10/13 14:39:09;;;;;;;17.55;6.30;;;;;;;-148.88;79.03;-17125.47;5034587;28;20031;-77
2023/10/13 14:41:38;;;;;;;17.40;6.45;;;;;;;-148.88;78.73;-17125.47;5034121;28;20037;-77